createdAt,value
2023-05-22T00:01:44.593Z,96642.53
2023-05-22T00:04:13.479Z,96669.00
2023-05-22T00:06:43.571Z,96681.56
2023-05-22T00:09:10.213Z,96675.16
2023-05-22T00:11:37.031Z,96687.28
2023-05-22T00:14:03.614Z,96675.63
2023-05-22T00:16:30.302Z,96670.03
2023-05-22T00:18:57.730Z,96669.56
2023-05-22T00:21:24.935Z,96667.03
2023-05-22T00:23:51.542Z,96673.47
2023-05-22T00:26:18.193Z,96661.50
2023-05-22T00:28:44.858Z,96670.13
2023-05-22T00:31:11.587Z,96580.53
2023-05-22T00:33:38.379Z,96673.47
2023-05-22T00:36:05.534Z,96667.59
2023-05-22T00:38:34.493Z,96680.69
2023-05-22T00:41:02.285Z,96682.50
2023-05-22T00:43:29.015Z,96686.53
2023-05-22T00:45:56.086Z,96684.69
2023-05-22T00:48:23.496Z,96669.59
2023-05-22T00:50:55.336Z,96697.63
2023-05-22T00:53:24.318Z,96620.53
2023-05-22T00:55:52.318Z,96690.25
2023-05-22T00:58:19.473Z,96633.00
2023-05-22T01:00:48.901Z,96681.97
2023-05-22T01:03:17.215Z,96692.81
2023-05-22T01:05:44.009Z,96664.53
2023-05-22T01:08:11.381Z,96689.25
2023-05-22T01:10:40.131Z,96687.53
2023-05-22T01:13:09.854Z,96680.28
2023-05-22T01:15:53.506Z,96672.38
2023-05-22T01:18:26.363Z,96677.03
2023-05-22T01:21:22.536Z,96678.03
2023-05-22T01:24:14.006Z,96687.75
2023-05-22T01:27:14.827Z,96687.84
2023-05-22T01:29:43.238Z,96678.09
2023-05-22T01:32:13.170Z,96670.13
2023-05-22T01:34:44.577Z,96673.31
2023-05-22T01:37:13.405Z,96635.19
2023-05-22T01:39:40.916Z,96672.28
2023-05-22T01:42:08.153Z,96669.09
2023-05-22T01:44:34.843Z,96667.75
2023-05-22T01:47:05.217Z,96669.00
2023-05-22T01:49:33.578Z,96663.41
2023-05-22T01:52:19.819Z,96664.22
2023-05-22T01:54:52.877Z,96656.78
2023-05-22T01:57:27.339Z,96652.00
2023-05-22T02:00:07.371Z,96658.66
2023-05-22T02:02:36.709Z,96580.94
2023-05-22T02:05:05.284Z,96651.28
2023-05-22T02:07:37.597Z,96659.31
2023-05-22T02:10:07.277Z,96657.72
2023-05-22T02:12:35.516Z,96657.63
2023-05-22T02:15:02.361Z,96582.22
2023-05-22T02:17:29.123Z,96665.91
2023-05-22T02:19:55.851Z,96657.63
2023-05-22T02:22:22.531Z,96654.44
2023-05-22T02:24:50.174Z,96597.19
2023-05-22T02:27:17.438Z,96646.81
2023-05-22T02:29:44.026Z,96653.25
2023-05-22T02:32:10.797Z,96666.19
2023-05-22T02:34:38.848Z,96671.06
2023-05-22T02:37:05.685Z,96630.88
2023-05-22T02:39:32.316Z,96647.34
2023-05-22T02:41:59.009Z,96615.00
2023-05-22T02:44:25.620Z,96651.66
2023-05-22T02:46:52.485Z,96654.44
2023-05-22T02:49:19.230Z,96655.59
2023-05-22T02:51:47.867Z,96654.00
2023-05-22T02:54:16.028Z,96648.50
2023-05-22T02:56:43.400Z,96642.31
2023-05-22T02:59:10.250Z,96651.56
2023-05-22T03:01:38.844Z,96649.47
2023-05-22T03:04:06.737Z,96655.50
2023-05-22T03:06:35.301Z,96596.59
2023-05-22T03:09:04.007Z,96660.13
2023-05-22T03:11:34.195Z,96654.63
2023-05-22T03:14:00.998Z,96660.00
2023-05-22T03:16:28.148Z,96611.66
2023-05-22T03:19:12.133Z,96661.66
2023-05-22T03:21:39.270Z,96655.38
2023-05-22T03:24:06.400Z,96636.47
2023-05-22T03:26:33.414Z,96650.00
2023-05-22T03:29:00.075Z,96627.78
2023-05-22T03:31:29.212Z,96655.38
2023-05-22T03:33:55.925Z,96652.97
2023-05-22T03:36:23.290Z,96626.41
2023-05-22T03:38:49.975Z,96647.00
2023-05-22T03:41:17.010Z,96630.66
2023-05-22T03:43:45.058Z,96643.34
2023-05-22T03:46:12.133Z,96585.00
2023-05-22T03:48:39.293Z,96621.81
2023-05-22T03:51:06.353Z,96652.72
2023-05-22T03:53:33.024Z,96639.81
2023-05-22T03:55:59.637Z,96610.53
2023-05-22T03:58:26.458Z,96647.66
2023-05-22T04:00:55.594Z,96614.41
2023-05-22T04:03:22.650Z,96652.78
2023-05-22T04:05:49.516Z,96650.84
2023-05-22T04:08:16.290Z,96654.75
2023-05-22T04:10:46.560Z,96655.75
2023-05-22T04:13:14.190Z,96653.69
2023-05-22T04:15:45.873Z,96584.00
2023-05-22T04:18:13.052Z,96656.31
2023-05-22T04:20:40.550Z,96654.16
2023-05-22T04:23:07.994Z,96646.03
2023-05-22T04:25:34.682Z,96654.34
2023-05-22T04:28:04.073Z,96654.72
2023-05-22T04:30:34.073Z,96593.88
2023-05-22T04:33:01.765Z,96660.53
2023-05-22T04:35:29.682Z,96660.63
2023-05-22T04:38:02.783Z,96657.03
2023-05-22T04:40:30.480Z,96651.53
2023-05-22T04:43:00.055Z,96655.41
2023-05-22T04:45:28.914Z,96651.00
2023-05-22T04:47:56.328Z,96657.16
2023-05-22T04:50:24.238Z,96655.78
2023-05-22T04:52:51.066Z,96661.06
2023-05-22T04:55:19.363Z,96659.03
2023-05-22T04:57:47.483Z,96663.00
2023-05-22T05:00:17.003Z,96667.88
2023-05-22T05:02:43.865Z,96650.91
2023-05-22T05:05:10.863Z,96666.44
2023-05-22T05:07:38.835Z,96645.31
2023-05-22T05:10:06.601Z,96665.50
2023-05-22T05:12:33.239Z,96663.91
2023-05-22T05:14:59.872Z,96636.13
2023-05-22T05:17:26.496Z,96657.38
2023-05-22T05:19:53.394Z,96658.00
2023-05-22T05:22:19.974Z,96548.31
2023-05-22T05:24:46.754Z,96671.88
2023-05-22T05:27:14.022Z,96676.59
2023-05-22T05:29:41.306Z,96663.06
2023-05-22T05:32:08.365Z,96674.53
2023-05-22T05:34:35.554Z,96665.44
2023-05-22T05:37:03.037Z,96649.38
2023-05-22T05:39:29.823Z,96652.53
2023-05-22T05:41:56.465Z,96654.78
2023-05-22T05:44:23.133Z,96669.81
2023-05-22T05:46:50.018Z,96654.63
2023-05-22T05:49:16.631Z,96540.41
2023-05-22T05:51:43.265Z,96667.44
2023-05-22T05:54:09.901Z,96671.25
2023-05-22T05:56:36.920Z,96347.34
2023-05-22T05:59:04.356Z,96333.44
2023-05-22T06:01:33.733Z,96628.91
2023-05-22T06:04:03.318Z,96611.44
2023-05-22T06:06:36.470Z,96610.19
2023-05-22T06:09:06.359Z,96652.66
2023-05-22T06:11:33.944Z,96666.41
2023-05-22T06:14:05.082Z,96664.63
2023-05-22T06:16:31.836Z,96667.38
2023-05-22T06:18:59.703Z,96671.63
2023-05-22T06:21:26.796Z,96666.41
2023-05-22T06:23:53.429Z,96648.47
2023-05-22T06:26:20.274Z,96626.63
2023-05-22T06:28:46.969Z,96668.78
2023-05-22T06:31:14.558Z,96672.84
2023-05-22T06:33:43.302Z,96655.00
2023-05-22T06:36:11.537Z,96685.00
2023-05-22T06:38:39.298Z,96666.53
2023-05-22T06:41:06.223Z,96667.16
2023-05-22T06:43:32.888Z,96659.06
2023-05-22T06:45:59.493Z,96658.50
2023-05-22T06:48:26.421Z,96664.03
2023-05-22T06:50:53.058Z,96669.91
2023-05-22T06:53:19.758Z,96670.91
2023-05-22T06:55:46.488Z,96665.31
2023-05-22T06:58:13.181Z,96625.50
2023-05-22T07:00:39.983Z,96665.28
2023-05-22T07:03:07.289Z,96670.25
2023-05-22T07:05:34.071Z,96668.00
2023-05-22T07:08:01.345Z,96669.91
2023-05-22T07:10:28.140Z,96666.91
2023-05-22T07:12:54.889Z,96539.63
2023-05-22T07:15:21.710Z,96663.47
2023-05-22T07:17:49.401Z,96629.25
2023-05-22T07:20:16.868Z,96624.09
2023-05-22T07:22:43.551Z,96660.44
2023-05-22T07:25:10.505Z,96675.69
2023-05-22T07:27:37.141Z,96650.28
2023-05-22T07:30:04.116Z,96673.53
2023-05-22T07:32:30.830Z,96670.97
2023-05-22T07:34:57.559Z,96622.06
2023-05-22T07:37:24.348Z,96659.53
2023-05-22T07:39:51.026Z,96677.50
2023-05-22T07:42:17.711Z,96650.06
2023-05-22T07:44:44.389Z,96668.00
2023-05-22T07:47:11.091Z,96670.09
2023-05-22T07:49:37.745Z,96625.25
2023-05-22T07:52:04.548Z,96679.53
2023-05-22T07:54:31.227Z,96677.22
2023-05-22T07:56:57.876Z,96669.78
2023-05-22T07:59:25.474Z,96635.81
2023-05-22T08:01:52.261Z,96668.19
2023-05-22T08:04:19.087Z,96674.19
2023-05-22T08:06:46.265Z,96658.00
2023-05-22T08:09:13.062Z,96656.34
2023-05-22T08:11:42.183Z,96655.03
2023-05-22T08:14:09.519Z,96659.72
2023-05-22T08:16:36.343Z,96665.34
2023-05-22T08:19:03.589Z,96644.38
2023-05-22T08:21:30.375Z,96658.88
2023-05-22T08:23:57.115Z,96670.41
2023-05-22T08:26:23.723Z,96659.06
2023-05-22T08:28:51.080Z,96611.06
2023-05-22T08:31:17.842Z,96672.84
2023-05-22T08:33:44.831Z,96657.13
2023-05-22T08:36:11.522Z,96620.16
2023-05-22T08:38:38.149Z,96637.56
2023-05-22T08:41:06.757Z,96699.75
2023-05-22T08:43:33.453Z,96652.59
2023-05-22T08:46:03.894Z,96656.38
2023-05-22T08:48:32.027Z,96662.97
2023-05-22T08:51:03.911Z,96667.78
2023-05-22T08:53:37.259Z,96656.72
2023-05-22T08:56:06.926Z,96571.13
2023-05-22T08:58:36.169Z,96656.47
2023-05-22T09:01:04.496Z,96566.13
2023-05-22T09:03:35.187Z,96610.75
2023-05-22T09:06:02.626Z,96647.16
2023-05-22T09:08:29.346Z,96644.03
2023-05-22T09:10:56.705Z,96640.22
2023-05-22T09:13:27.458Z,96653.91
2023-05-22T09:15:59.145Z,96655.28
2023-05-22T09:18:28.436Z,96625.50
2023-05-22T09:20:57.509Z,96659.84
2023-05-22T09:23:25.623Z,96645.75
2023-05-22T09:25:56.123Z,96560.19
2023-05-22T09:28:23.648Z,96572.34
2023-05-22T09:30:51.771Z,96644.50
2023-05-22T09:33:19.219Z,96639.03
2023-05-22T09:35:51.823Z,96642.81
2023-05-22T09:38:18.680Z,96560.38
2023-05-22T09:40:45.352Z,96631.25
2023-05-22T09:43:12.761Z,96632.19
2023-05-22T09:45:39.635Z,96633.22
2023-05-22T09:48:07.208Z,96628.44
2023-05-22T09:50:33.973Z,96607.97
2023-05-22T09:53:05.044Z,96634.50
2023-05-22T09:55:32.350Z,96628.56
2023-05-22T09:58:04.279Z,96625.34
2023-05-22T10:00:34.998Z,96621.31
2023-05-22T10:03:08.314Z,96619.34
2023-05-22T10:05:38.356Z,96625.91
2023-05-22T10:08:28.090Z,96617.09
2023-05-22T10:10:54.991Z,96617.56
2023-05-22T10:13:22.328Z,96611.63
2023-05-22T10:15:49.938Z,96620.63
2023-05-22T10:18:17.681Z,96578.81
2023-05-22T10:20:46.952Z,96615.53
2023-05-22T10:23:16.578Z,96574.47
2023-05-22T10:25:44.638Z,96583.56
2023-05-22T10:28:13.842Z,96573.75
2023-05-22T10:30:40.980Z,96617.47
2023-05-22T10:33:22.499Z,96616.72
2023-05-22T10:35:54.064Z,96560.31
2023-05-22T10:38:26.488Z,96613.72
2023-05-22T10:40:54.350Z,96564.28
2023-05-22T10:43:22.738Z,96601.06
2023-05-22T10:45:49.673Z,96606.00
2023-05-22T10:48:22.257Z,96588.06
2023-05-22T10:50:55.082Z,96531.75
2023-05-22T10:53:26.526Z,96570.47
2023-05-22T10:55:57.426Z,96595.13
2023-05-22T10:58:34.566Z,96580.50
2023-05-22T11:01:18.509Z,96578.09
2023-05-22T11:04:02.469Z,96537.91
2023-05-22T11:06:39.557Z,96583.28
2023-05-22T11:09:32.453Z,96557.75
2023-05-22T11:12:25.215Z,96560.59
2023-05-22T11:15:19.132Z,96563.16
2023-05-22T11:17:52.053Z,96564.09
2023-05-22T11:20:22.659Z,96566.69
2023-05-22T11:23:05.369Z,96543.50
2023-05-22T11:25:34.790Z,96567.19
2023-05-22T11:28:06.298Z,96566.53
2023-05-22T11:30:34.813Z,96565.03
2023-05-22T11:33:02.541Z,96558.72
2023-05-22T11:35:29.650Z,96574.75
2023-05-22T11:37:57.156Z,96570.38
2023-05-22T11:40:26.058Z,96573.66
2023-05-22T11:42:53.739Z,96461.09
2023-05-22T11:45:20.755Z,96564.72
2023-05-22T11:47:48.850Z,96481.50
2023-05-22T11:50:20.285Z,96556.38
2023-05-22T11:52:56.674Z,96551.78
2023-05-22T11:55:23.772Z,96462.16
2023-05-22T11:57:50.581Z,96572.41
2023-05-22T12:00:18.364Z,96568.16
2023-05-22T12:02:47.608Z,96564.38
2023-05-22T12:05:16.190Z,96562.97
2023-05-22T12:07:43.749Z,96547.06
2023-05-22T12:10:11.546Z,96483.41
2023-05-22T12:12:39.205Z,96525.44
2023-05-22T12:15:07.403Z,96520.84
2023-05-22T12:17:37.768Z,96593.22
2023-05-22T12:20:05.702Z,96602.97
2023-05-22T12:22:32.630Z,96612.97
2023-05-22T12:24:59.967Z,96623.19
2023-05-22T12:27:33.340Z,96625.66
2023-05-22T12:30:09.863Z,96616.22
2023-05-22T12:32:36.915Z,96632.59
2023-05-22T12:35:05.314Z,96626.28
2023-05-22T12:37:34.435Z,96632.91
2023-05-22T12:40:03.932Z,96589.19
2023-05-22T12:42:31.310Z,96613.25
2023-05-22T12:44:58.682Z,96607.91
2023-05-22T12:47:26.257Z,96603.38
2023-05-22T12:49:53.596Z,96593.56
2023-05-22T12:52:20.742Z,96601.06
2023-05-22T12:54:47.669Z,96599.78
2023-05-22T12:57:14.710Z,96599.38
2023-05-22T12:59:41.608Z,96605.47
2023-05-22T13:02:08.504Z,96534.25
2023-05-22T13:04:35.575Z,96568.31
2023-05-22T13:07:02.772Z,96600.50
2023-05-22T13:09:30.138Z,96613.38
2023-05-22T13:11:57.715Z,96602.22
2023-05-22T13:14:25.253Z,96594.13
2023-05-22T13:16:52.701Z,96595.72
2023-05-22T13:19:19.556Z,96600.41
2023-05-22T13:21:47.056Z,96600.59
2023-05-22T13:24:13.947Z,96568.63
2023-05-22T13:26:41.081Z,96597.44
2023-05-22T13:29:07.957Z,96606.06
2023-05-22T13:31:37.609Z,96662.91
2023-05-22T13:34:05.137Z,96598.88
2023-05-22T13:36:32.190Z,96599.22
2023-05-22T13:38:59.118Z,96603.84
2023-05-22T13:41:26.706Z,96605.47
2023-05-22T13:43:54.081Z,96597.94
2023-05-22T13:46:22.665Z,96530.31
2023-05-22T13:48:49.690Z,96599.88
2023-05-22T13:51:16.584Z,96554.44
2023-05-22T13:53:43.234Z,96599.91
2023-05-22T13:56:09.884Z,96607.50
2023-05-22T13:58:36.664Z,96610.47
2023-05-22T14:01:03.493Z,96553.13
2023-05-22T14:03:30.521Z,96600.78
2023-05-22T14:05:57.387Z,96615.19
2023-05-22T14:08:24.739Z,96595.91
2023-05-22T14:10:51.575Z,96652.16
2023-05-22T14:13:18.366Z,96656.78
2023-05-22T14:15:47.020Z,96680.38
2023-05-22T14:18:16.394Z,96660.53
2023-05-22T14:20:43.704Z,96686.34
2023-05-22T14:23:10.541Z,96656.38
2023-05-22T14:25:37.268Z,96722.28
2023-05-22T14:28:03.991Z,96742.56
2023-05-22T14:30:31.071Z,96748.72
2023-05-22T14:32:57.883Z,96749.38
2023-05-22T14:35:24.531Z,96741.69
2023-05-22T14:37:51.195Z,96712.06
2023-05-22T14:40:17.966Z,96751.84
2023-05-22T14:42:45.334Z,96744.59
2023-05-22T14:45:12.336Z,96729.78
2023-05-22T14:47:40.845Z,96738.16
2023-05-22T14:50:18.841Z,96743.75
2023-05-22T14:52:46.726Z,96727.84
2023-05-22T14:55:13.466Z,96744.59
2023-05-22T14:57:40.110Z,96734.34
2023-05-22T15:00:09.071Z,96744.69
2023-05-22T15:02:36.548Z,96694.66
2023-05-22T15:05:03.286Z,96739.13
2023-05-22T15:07:43.130Z,96727.97
2023-05-22T15:10:12.113Z,96691.41
2023-05-22T15:12:38.848Z,96714.50
2023-05-22T15:15:05.981Z,96710.50
2023-05-22T15:17:32.825Z,96706.44
2023-05-22T15:19:59.752Z,96712.84
2023-05-22T15:22:26.340Z,96710.09
2023-05-22T15:25:14.904Z,96709.63
2023-05-22T15:27:42.412Z,96686.59
2023-05-22T15:30:09.891Z,96697.66
2023-05-22T15:32:37.225Z,96644.47
2023-05-22T15:35:05.624Z,96701.34
2023-05-22T15:37:33.816Z,96654.16
2023-05-22T15:40:01.910Z,96682.72
2023-05-22T15:42:28.961Z,96725.59
2023-05-22T15:44:55.986Z,96712.84
2023-05-22T15:47:22.714Z,96713.69
2023-05-22T15:49:49.630Z,96698.16
2023-05-22T15:52:16.660Z,96690.59
2023-05-22T15:54:43.380Z,96674.69
2023-05-22T15:57:10.097Z,96675.50
2023-05-22T15:59:36.966Z,96691.81
2023-05-22T16:02:03.790Z,96683.44
2023-05-22T16:04:30.695Z,96678.63
2023-05-22T16:06:57.326Z,96682.63
2023-05-22T16:09:23.966Z,96673.03
2023-05-22T16:11:50.774Z,96670.59
2023-05-22T16:14:17.429Z,96660.22
2023-05-22T16:16:44.017Z,96605.03
2023-05-22T16:19:11.701Z,96661.66
2023-05-22T16:21:38.575Z,96659.31
2023-05-22T16:24:06.974Z,96649.03
2023-05-22T16:26:33.763Z,96652.09
2023-05-22T16:29:00.484Z,96667.25
2023-05-22T16:31:27.190Z,96665.69
2023-05-22T16:33:53.877Z,96668.16
2023-05-22T16:36:20.574Z,96663.34
2023-05-22T16:38:47.252Z,96664.13
2023-05-22T16:41:13.948Z,96628.06
2023-05-22T16:43:40.761Z,96673.75
2023-05-22T16:46:07.449Z,96670.97
2023-05-22T16:48:34.084Z,96673.69
2023-05-22T16:51:00.783Z,96670.44
2023-05-22T16:53:27.490Z,96677.53
2023-05-22T16:55:54.473Z,96684.28
2023-05-22T16:58:21.883Z,96684.69
2023-05-22T17:00:48.823Z,96658.09
2023-05-22T17:03:15.716Z,96694.09
2023-05-22T17:05:42.866Z,96715.97
2023-05-22T17:08:09.665Z,96677.72
2023-05-22T17:10:36.315Z,96720.53
2023-05-22T17:13:02.940Z,96739.59
2023-05-22T17:15:29.695Z,96736.69
2023-05-22T17:17:56.417Z,96745.78
2023-05-22T17:20:23.272Z,96664.69
2023-05-22T17:22:50.217Z,96664.97
2023-05-22T17:25:17.152Z,96658.19
2023-05-22T17:27:44.467Z,96735.94
2023-05-22T17:30:11.508Z,96734.25
2023-05-22T17:32:38.409Z,96730.22
2023-05-22T17:35:06.838Z,96720.66
2023-05-22T17:37:34.353Z,96732.97
2023-05-22T17:40:01.088Z,96721.34
2023-05-22T17:42:27.891Z,96732.13
2023-05-22T17:44:54.602Z,96722.59
2023-05-22T17:47:21.444Z,96722.31
2023-05-22T17:49:48.176Z,96679.47
2023-05-22T17:52:14.918Z,96722.44
2023-05-22T17:54:41.580Z,96716.78
2023-05-22T17:57:08.287Z,96619.13
2023-05-22T17:59:35.016Z,96726.38
2023-05-22T18:02:01.779Z,96744.72
2023-05-22T18:04:28.539Z,96750.41
2023-05-22T18:06:55.206Z,96733.28
2023-05-22T18:09:21.804Z,96755.19
2023-05-22T18:11:52.172Z,96741.75
2023-05-22T18:14:18.829Z,96751.28
2023-05-22T18:16:45.550Z,96752.13
2023-05-22T18:19:12.178Z,96745.31
2023-05-22T18:21:38.907Z,96694.91
2023-05-22T18:24:05.815Z,96722.66
2023-05-22T18:26:32.763Z,96727.50
2023-05-22T18:28:59.625Z,96615.53
2023-05-22T18:31:26.358Z,96725.13
2023-05-22T18:33:53.104Z,96734.28
2023-05-22T18:36:19.840Z,96724.28
2023-05-22T18:38:46.694Z,96728.22
2023-05-22T18:41:14.399Z,96725.03
2023-05-22T18:43:41.359Z,96728.94
2023-05-22T18:46:08.154Z,96724.13
2023-05-22T18:48:35.266Z,96719.69
2023-05-22T18:51:01.884Z,96728.09
2023-05-22T18:53:28.575Z,96717.81
2023-05-22T18:55:55.233Z,96739.38
2023-05-22T18:58:22.059Z,96715.03
2023-05-22T19:00:48.902Z,96737.59
2023-05-22T19:03:15.661Z,96742.31
2023-05-22T19:05:43.046Z,96797.25
2023-05-22T19:08:09.819Z,96747.22
2023-05-22T19:10:36.570Z,96746.44
2023-05-22T19:13:03.932Z,96748.25
2023-05-22T19:15:30.829Z,96748.88
2023-05-22T19:17:57.748Z,96755.22
2023-05-22T19:20:24.453Z,96754.41
2023-05-22T19:22:51.554Z,96665.38
2023-05-22T19:25:18.542Z,96755.91
2023-05-22T19:27:45.865Z,96750.25
2023-05-22T19:30:15.206Z,96754.22
2023-05-22T19:32:43.573Z,96658.47
2023-05-22T19:35:11.107Z,96756.53
2023-05-22T19:37:38.161Z,96752.53
2023-05-22T19:40:06.071Z,96758.97
2023-05-22T19:42:32.978Z,96725.16
2023-05-22T19:44:59.699Z,96749.31
2023-05-22T19:47:26.376Z,96754.56
2023-05-22T19:49:53.022Z,96755.06
2023-05-22T19:52:19.706Z,96770.56
2023-05-22T19:54:46.325Z,96767.47
2023-05-22T19:57:12.998Z,96738.47
2023-05-22T19:59:39.732Z,96764.34
2023-05-22T20:02:07.194Z,96774.00
2023-05-22T20:04:34.477Z,96763.19
2023-05-22T20:07:02.220Z,96771.97
2023-05-22T20:09:28.989Z,96718.75
2023-05-22T20:11:55.746Z,96758.50
2023-05-22T20:14:22.364Z,96757.34
2023-05-22T20:16:49.137Z,96768.09
2023-05-22T20:19:17.569Z,96776.47
2023-05-22T20:21:44.420Z,96773.75
2023-05-22T20:24:17.476Z,96720.84
2023-05-22T20:26:44.525Z,96758.63
2023-05-22T20:29:11.488Z,96714.97
2023-05-22T20:31:38.147Z,96761.03
2023-05-22T20:34:04.836Z,96734.84
2023-05-22T20:36:32.673Z,96764.25
2023-05-22T20:38:59.321Z,96764.28
2023-05-22T20:41:26.126Z,96762.66
2023-05-22T20:43:54.444Z,96736.47
2023-05-22T20:46:25.020Z,96742.09
2023-05-22T20:48:52.105Z,96753.25
2023-05-22T20:51:20.559Z,96707.09
2023-05-22T20:53:48.110Z,96765.16
2023-05-22T20:56:15.027Z,96755.63
2023-05-22T20:58:42.449Z,96743.31
2023-05-22T21:01:09.473Z,96740.88
2023-05-22T21:03:36.255Z,96712.69
2023-05-22T21:06:03.021Z,96726.22
2023-05-22T21:08:29.643Z,96757.22
2023-05-22T21:10:56.323Z,96759.63
2023-05-22T21:13:22.939Z,96756.84
2023-05-22T21:15:49.658Z,96748.91
2023-05-22T21:18:16.378Z,96756.44
2023-05-22T21:20:43.080Z,96758.44
2023-05-22T21:23:09.671Z,96754.84
2023-05-22T21:25:36.647Z,96740.56
2023-05-22T21:28:03.558Z,96756.44
2023-05-22T21:30:31.650Z,96755.66
2023-05-22T21:32:58.427Z,96762.03
2023-05-22T21:35:25.517Z,96623.66
2023-05-22T21:37:53.215Z,96750.88
2023-05-22T21:40:19.923Z,96712.72
2023-05-22T21:42:47.463Z,96700.00
2023-05-22T21:45:14.373Z,96742.91
2023-05-22T21:47:41.273Z,96681.69
2023-05-22T21:50:08.200Z,96729.81
2023-05-22T21:52:34.814Z,96730.97
2023-05-22T21:55:02.567Z,96732.59
2023-05-22T21:57:29.304Z,96730.19
2023-05-22T21:59:55.900Z,96732.59
2023-05-22T22:02:22.581Z,96734.97
2023-05-22T22:04:49.237Z,96736.94
2023-05-22T22:07:16.013Z,96609.28
2023-05-22T22:09:42.733Z,96681.63
2023-05-22T22:12:09.591Z,96735.72
2023-05-22T22:14:36.429Z,96703.06
2023-05-22T22:17:05.969Z,96733.72
2023-05-22T22:19:34.418Z,96737.34
2023-05-22T22:22:01.614Z,96729.38
2023-05-22T22:24:29.076Z,96736.50
2023-05-22T22:26:55.916Z,96715.84
2023-05-22T22:29:22.606Z,96726.16
2023-05-22T22:31:49.372Z,96721.81
2023-05-22T22:34:16.024Z,96727.78
2023-05-22T22:36:42.769Z,96720.63
2023-05-22T22:39:09.355Z,96710.22
2023-05-22T22:41:36.041Z,96730.53
2023-05-22T22:44:02.817Z,96695.09
2023-05-22T22:46:29.454Z,96722.91
2023-05-22T22:48:56.134Z,96719.72
2023-05-22T22:51:22.764Z,96726.91
2023-05-22T22:53:49.373Z,96731.22
2023-05-22T22:56:16.270Z,96718.09
2023-05-22T22:58:42.886Z,96722.09
2023-05-22T23:01:09.596Z,96733.97
2023-05-22T23:03:36.368Z,96728.41
2023-05-22T23:06:03.016Z,96708.13
2023-05-22T23:08:29.680Z,96724.03
2023-05-22T23:10:56.457Z,96673.13
2023-05-22T23:13:23.141Z,96730.00
2023-05-22T23:15:50.080Z,96736.34
2023-05-22T23:18:16.807Z,96726.84
2023-05-22T23:20:43.609Z,96717.28
2023-05-22T23:23:10.382Z,96698.16
2023-05-22T23:25:37.024Z,96692.59
2023-05-22T23:28:03.652Z,96715.66
2023-05-22T23:30:30.320Z,96712.50
2023-05-22T23:32:57.040Z,96714.50
2023-05-22T23:35:23.730Z,96708.09
2023-05-22T23:37:50.343Z,96706.94
2023-05-22T23:40:17.164Z,96667.91
2023-05-22T23:42:43.799Z,96699.72
2023-05-22T23:45:10.686Z,96703.66
2023-05-22T23:47:37.286Z,96775.88
2023-05-22T23:50:04.253Z,96701.72
2023-05-22T23:52:30.885Z,96659.09
2023-05-22T23:54:57.541Z,96700.44
2023-05-22T23:57:24.173Z,96691.69
2023-05-22T23:59:50.999Z,96683.75
